Carlton, Texas
Current Conditions -  °F | °C
As of 6:55 AM on Friday 24 Oct 2014 (Local Time) from KMNZ Reporting Station
Clear Clear  
Wind Chill: 59°   Ceiling: Unl
Heat Index: 59°   Visibility: 10mi
Dew Point: 57°   Wind: 6mph
Humidity: 91%   Direction: 170°S
Pressure: 30.15"   Gusts: NA
Location:  31.92°N, 98.17°W
Report Text: KMNZ 241155Z AUTO 17005KT 10SM CLR 15/14 A3015 RMK AO2 T01510137 10170 20148
Loading
Personal Weather Stations






























Interactive Weather Map
Tropical Storm Tracking
New forecast layout! Learn more

10-Day Weather Forecast

Advertisements
Track Severe Weather on mobile